Grindstone, Texas
Current Conditions -  °F | °C
As of 11:53 PM on Tuesday 25 Nov 2014 (Local Time) from KCRS Reporting Station
Clear Clear  
Wind Chill: 41°   Ceiling: Unl
Heat Index: 44°   Visibility: 10mi
Dew Point: 29°   Wind: 6mph
Humidity: 55%   Direction: 200°SSW
Pressure: 30.16"   Gusts: NA
Location:  31.8162°N, 96.1239°W
Report Text: KCRS 260553Z AUTO 20005KT 10SM CLR 07/M02 A3016 RMK AO2 SLP212 T00671017 10144 20067 401890017 58006
Loading
Personal Weather Stations






























Interactive Weather Map New forecast layout! Learn more

10-Day Weather Forecast

Advertisements
Track Severe Weather on mobile